Terminal Aerodrome Forecast
Issued by NWS

Home | Current Version | Previous Version | Text Only | Print | Product List | Glossary On
Versions: 1 2 3 4 5 6 7 8 9 10 11 12
000
FTUS46 KSTO 210500
TAFSMF
TAF
KSMF 210537Z 2106/2206 14011KT P6SM BKN250
     FM211600 17007KT P6SM BKN025
     FM211900 18010KT P6SM FEW030 SCT250
     FM220100 17015KT P6SM BKN200=

USA.gov is the U.S. government's official web portal to all federal, state and local government web resources and services.